sensor_id;sensor_type;location;lat;lon;timestamp;temperature;humidity
20670;DHT22;10494;50.868;4.180;2022-09-02T00:01:24;17.60;99.90
20670;DHT22;10494;50.868;4.180;2022-09-02T00:03:53;17.50;99.90
20670;DHT22;10494;50.868;4.180;2022-09-02T00:06:19;17.40;99.90
20670;DHT22;10494;50.868;4.180;2022-09-02T00:08:45;17.40;99.90
20670;DHT22;10494;50.868;4.180;2022-09-02T00:11:17;17.40;99.90
20670;DHT22;10494;50.868;4.180;2022-09-02T00:13:43;17.30;99.90
20670;DHT22;10494;50.868;4.180;2022-09-02T00:16:08;17.30;99.90
20670;DHT22;10494;50.868;4.180;2022-09-02T00:18:36;17.30;99.90
20670;DHT22;10494;50.868;4.180;2022-09-02T00:21:02;17.30;99.90
20670;DHT22;10494;50.868;4.180;2022-09-02T00:23:28;17.20;99.90
20670;DHT22;10494;50.868;4.180;2022-09-02T00:25:54;17.20;99.90
20670;DHT22;10494;50.868;4.180;2022-09-02T00:28:19;17.10;99.90
20670;DHT22;10494;50.868;4.180;2022-09-02T00:30:45;17.10;99.90
20670;DHT22;10494;50.868;4.180;2022-09-02T00:33:12;17.10;99.90
20670;DHT22;10494;50.868;4.180;2022-09-02T00:35:38;17.10;99.90
20670;DHT22;10494;50.868;4.180;2022-09-02T00:38:04;17.10;99.90
20670;DHT22;10494;50.868;4.180;2022-09-02T00:40:31;17.00;99.90
20670;DHT22;10494;50.868;4.180;2022-09-02T00:42:57;17.00;99.90
20670;DHT22;10494;50.868;4.180;2022-09-02T00:45:23;17.00;99.90
20670;DHT22;10494;50.868;4.180;2022-09-02T00:47:48;17.10;99.90
20670;DHT22;10494;50.868;4.180;2022-09-02T00:50:21;17.00;99.90
20670;DHT22;10494;50.868;4.180;2022-09-02T00:52:51;17.00;99.90
20670;DHT22;10494;50.868;4.180;2022-09-02T00:55:23;16.90;99.90
20670;DHT22;10494;50.868;4.180;2022-09-02T00:57:53;16.80;99.90
20670;DHT22;10494;50.868;4.180;2022-09-02T01:00:27;16.80;99.90
20670;DHT22;10494;50.868;4.180;2022-09-02T01:03:06;16.80;99.90
20670;DHT22;10494;50.868;4.180;2022-09-02T01:05:40;16.80;99.90
20670;DHT22;10494;50.868;4.180;2022-09-02T01:08:18;16.70;99.90
20670;DHT22;10494;50.868;4.180;2022-09-02T01:10:45;16.70;99.90
20670;DHT22;10494;50.868;4.180;2022-09-02T01:13:15;16.70;99.90
20670;DHT22;10494;50.868;4.180;2022-09-02T01:15:48;16.70;99.90
20670;DHT22;10494;50.868;4.180;2022-09-02T01:18:20;16.60;99.90
20670;DHT22;10494;50.868;4.180;2022-09-02T01:20:47;16.70;99.90
20670;DHT22;10494;50.868;4.180;2022-09-02T01:23:14;16.60;99.90
20670;DHT22;10494;50.868;4.180;2022-09-02T01:25:41;16.60;99.90
20670;DHT22;10494;50.868;4.180;2022-09-02T01:28:10;16.50;99.90
20670;DHT22;10494;50.868;4.180;2022-09-02T01:30:39;16.50;99.90
20670;DHT22;10494;50.868;4.180;2022-09-02T01:33:07;16.50;99.90
20670;DHT22;10494;50.868;4.180;2022-09-02T01:35:33;16.40;99.90
20670;DHT22;10494;50.868;4.180;2022-09-02T01:37:59;16.40;99.90
20670;DHT22;10494;50.868;4.180;2022-09-02T01:40:27;16.40;99.90
20670;DHT22;10494;50.868;4.180;2022-09-02T01:42:57;16.40;99.90
20670;DHT22;10494;50.868;4.180;2022-09-02T01:45:24;16.30;99.90
20670;DHT22;10494;50.868;4.180;2022-09-02T01:47:50;16.30;99.90
20670;DHT22;10494;50.868;4.180;2022-09-02T01:50:16;16.30;99.90
20670;DHT22;10494;50.868;4.180;2022-09-02T01:52:42;16.30;99.90
20670;DHT22;10494;50.868;4.180;2022-09-02T01:55:08;16.30;99.90
20670;DHT22;10494;50.868;4.180;2022-09-02T01:57:34;16.30;99.90
20670;DHT22;10494;50.868;4.180;2022-09-02T02:00:00;16.30;99.90
20670;DHT22;10494;50.868;4.180;2022-09-02T02:02:26;16.20;99.90
20670;DHT22;10494;50.868;4.180;2022-09-02T02:04:53;16.20;99.90
20670;DHT22;10494;50.868;4.180;2022-09-02T02:07:20;16.20;99.90
20670;DHT22;10494;50.868;4.180;2022-09-02T02:09:47;16.20;99.90
20670;DHT22;10494;50.868;4.180;2022-09-02T02:12:13;16.20;99.90
20670;DHT22;10494;50.868;4.180;2022-09-02T02:14:39;16.20;99.90
20670;DHT22;10494;50.868;4.180;2022-09-02T02:17:05;16.20;99.90
20670;DHT22;10494;50.868;4.180;2022-09-02T02:19:30;16.20;99.90
20670;DHT22;10494;50.868;4.180;2022-09-02T02:21:56;16.20;99.90
20670;DHT22;10494;50.868;4.180;2022-09-02T02:24:22;16.20;99.90
20670;DHT22;10494;50.868;4.180;2022-09-02T02:26:48;16.10;99.90
20670;DHT22;10494;50.868;4.180;2022-09-02T02:29:13;16.20;99.90
20670;DHT22;10494;50.868;4.180;2022-09-02T02:31:40;16.10;99.90
20670;DHT22;10494;50.868;4.180;2022-09-02T02:34:06;16.10;99.90
20670;DHT22;10494;50.868;4.180;2022-09-02T02:36:31;16.00;99.90
20670;DHT22;10494;50.868;4.180;2022-09-02T02:38:57;16.00;99.90
20670;DHT22;10494;50.868;4.180;2022-09-02T02:41:23;15.90;99.90
20670;DHT22;10494;50.868;4.180;2022-09-02T02:43:50;15.90;99.90
20670;DHT22;10494;50.868;4.180;2022-09-02T02:46:15;15.90;99.90
20670;DHT22;10494;50.868;4.180;2022-09-02T02:48:41;16.00;99.90
20670;DHT22;10494;50.868;4.180;2022-09-02T02:51:07;16.00;99.90
20670;DHT22;10494;50.868;4.180;2022-09-02T02:53:34;16.00;99.90
20670;DHT22;10494;50.868;4.180;2022-09-02T02:56:02;15.90;99.90
20670;DHT22;10494;50.868;4.180;2022-09-02T02:58:28;15.90;99.90
20670;DHT22;10494;50.868;4.180;2022-09-02T03:00:55;15.90;99.90
20670;DHT22;10494;50.868;4.180;2022-09-02T03:03:21;15.80;99.90
20670;DHT22;10494;50.868;4.180;2022-09-02T03:05:48;15.70;99.90
20670;DHT22;10494;50.868;4.180;2022-09-02T03:08:14;15.70;99.90
20670;DHT22;10494;50.868;4.180;2022-09-02T03:10:41;15.70;99.90
20670;DHT22;10494;50.868;4.180;2022-09-02T03:13:08;15.60;99.90
20670;DHT22;10494;50.868;4.180;2022-09-02T03:15:36;15.60;99.90
20670;DHT22;10494;50.868;4.180;2022-09-02T03:18:01;15.60;99.90
20670;DHT22;10494;50.868;4.180;2022-09-02T03:20:27;15.50;99.90
20670;DHT22;10494;50.868;4.180;2022-09-02T03:22:55;15.50;99.90
20670;DHT22;10494;50.868;4.180;2022-09-02T03:25:21;15.50;99.90
20670;DHT22;10494;50.868;4.180;2022-09-02T03:27:48;15.50;99.90
20670;DHT22;10494;50.868;4.180;2022-09-02T03:30:21;15.50;99.90
20670;DHT22;10494;50.868;4.180;2022-09-02T03:32:47;15.50;99.90
20670;DHT22;10494;50.868;4.180;2022-09-02T03:35:16;15.50;99.90
20670;DHT22;10494;50.868;4.180;2022-09-02T03:37:44;15.50;99.90
20670;DHT22;10494;50.868;4.180;2022-09-02T03:40:14;15.40;99.90
20670;DHT22;10494;50.868;4.180;2022-09-02T03:42:40;15.40;99.90
20670;DHT22;10494;50.868;4.180;2022-09-02T03:45:08;15.40;99.90
20670;DHT22;10494;50.868;4.180;2022-09-02T03:47:35;15.30;99.90
20670;DHT22;10494;50.868;4.180;2022-09-02T03:50:01;15.30;99.90
20670;DHT22;10494;50.868;4.180;2022-09-02T03:52:28;15.20;99.90
20670;DHT22;10494;50.868;4.180;2022-09-02T03:54:54;15.20;99.90
20670;DHT22;10494;50.868;4.180;2022-09-02T03:57:20;15.30;99.90
20670;DHT22;10494;50.868;4.180;2022-09-02T03:59:47;15.20;99.90
20670;DHT22;10494;50.868;4.180;2022-09-02T04:02:13;15.20;99.90
20670;DHT22;10494;50.868;4.180;2022-09-02T04:04:39;15.10;99.90
20670;DHT22;10494;50.868;4.180;2022-09-02T04:07:04;15.10;99.90
20670;DHT22;10494;50.868;4.180;2022-09-02T04:09:30;15.00;99.90
20670;DHT22;10494;50.868;4.180;2022-09-02T04:11:55;15.00;99.90
20670;DHT22;10494;50.868;4.180;2022-09-02T04:14:21;15.00;99.90
20670;DHT22;10494;50.868;4.180;2022-09-02T04:16:47;15.00;99.90
20670;DHT22;10494;50.868;4.180;2022-09-02T04:19:12;14.90;99.90
20670;DHT22;10494;50.868;4.180;2022-09-02T04:21:39;14.90;99.90
20670;DHT22;10494;50.868;4.180;2022-09-02T04:24:07;14.90;99.90
20670;DHT22;10494;50.868;4.180;2022-09-02T04:26:34;14.90;99.90
20670;DHT22;10494;50.868;4.180;2022-09-02T04:29:00;14.90;99.90
20670;DHT22;10494;50.868;4.180;2022-09-02T04:31:26;14.90;99.90
20670;DHT22;10494;50.868;4.180;2022-09-02T04:33:54;14.90;99.90
20670;DHT22;10494;50.868;4.180;2022-09-02T04:36:21;14.70;99.90
20670;DHT22;10494;50.868;4.180;2022-09-02T04:38:47;14.70;99.90
20670;DHT22;10494;50.868;4.180;2022-09-02T04:41:16;14.60;99.90
20670;DHT22;10494;50.868;4.180;2022-09-02T04:43:42;14.70;99.90
20670;DHT22;10494;50.868;4.180;2022-09-02T04:46:10;14.60;99.90
20670;DHT22;10494;50.868;4.180;2022-09-02T04:48:37;14.60;99.90
20670;DHT22;10494;50.868;4.180;2022-09-02T04:51:12;14.60;99.90
20670;DHT22;10494;50.868;4.180;2022-09-02T04:53:38;14.60;99.90
20670;DHT22;10494;50.868;4.180;2022-09-02T04:56:07;14.60;99.90
20670;DHT22;10494;50.868;4.180;2022-09-02T04:58:34;14.60;99.90
20670;DHT22;10494;50.868;4.180;2022-09-02T05:01:08;14.70;99.90
20670;DHT22;10494;50.868;4.180;2022-09-02T05:03:35;14.60;99.90
20670;DHT22;10494;50.868;4.180;2022-09-02T05:06:05;14.60;99.90
20670;DHT22;10494;50.868;4.180;2022-09-02T05:08:32;14.70;99.90
20670;DHT22;10494;50.868;4.180;2022-09-02T05:10:59;14.80;99.90
20670;DHT22;10494;50.868;4.180;2022-09-02T05:13:26;14.80;99.90
20670;DHT22;10494;50.868;4.180;2022-09-02T05:15:53;14.80;99.90
20670;DHT22;10494;50.868;4.180;2022-09-02T05:18:19;14.90;99.90
20670;DHT22;10494;50.868;4.180;2022-09-02T05:20:44;14.90;99.90
20670;DHT22;10494;50.868;4.180;2022-09-02T05:23:11;15.00;99.90
20670;DHT22;10494;50.868;4.180;2022-09-02T05:25:40;15.00;99.90
20670;DHT22;10494;50.868;4.180;2022-09-02T05:28:06;15.10;99.90
20670;DHT22;10494;50.868;4.180;2022-09-02T05:30:35;15.10;99.90
20670;DHT22;10494;50.868;4.180;2022-09-02T05:33:00;15.20;99.90
20670;DHT22;10494;50.868;4.180;2022-09-02T05:35:26;15.20;99.90
20670;DHT22;10494;50.868;4.180;2022-09-02T05:37:51;15.20;99.90
20670;DHT22;10494;50.868;4.180;2022-09-02T05:40:17;15.30;99.90
20670;DHT22;10494;50.868;4.180;2022-09-02T05:42:43;15.30;99.90
20670;DHT22;10494;50.868;4.180;2022-09-02T05:45:10;15.40;99.90
20670;DHT22;10494;50.868;4.180;2022-09-02T05:47:35;15.50;99.90
20670;DHT22;10494;50.868;4.180;2022-09-02T05:50:02;15.60;99.90
20670;DHT22;10494;50.868;4.180;2022-09-02T05:52:28;15.60;99.90
20670;DHT22;10494;50.868;4.180;2022-09-02T05:54:54;15.70;99.90
20670;DHT22;10494;50.868;4.180;2022-09-02T05:57:21;15.80;99.90
20670;DHT22;10494;50.868;4.180;2022-09-02T05:59:47;15.90;99.90
20670;DHT22;10494;50.868;4.180;2022-09-02T06:02:15;16.00;99.90
20670;DHT22;10494;50.868;4.180;2022-09-02T06:04:44;16.10;99.90
20670;DHT22;10494;50.868;4.180;2022-09-02T06:07:12;16.20;99.90
20670;DHT22;10494;50.868;4.180;2022-09-02T06:09:38;16.20;99.90
20670;DHT22;10494;50.868;4.180;2022-09-02T06:12:05;16.30;99.90
20670;DHT22;10494;50.868;4.180;2022-09-02T06:14:33;16.50;99.90
20670;DHT22;10494;50.868;4.180;2022-09-02T06:16:59;16.60;99.90
20670;DHT22;10494;50.868;4.180;2022-09-02T06:19:26;16.70;99.90
20670;DHT22;10494;50.868;4.180;2022-09-02T06:21:54;16.80;99.90
20670;DHT22;10494;50.868;4.180;2022-09-02T06:24:20;16.90;99.90
20670;DHT22;10494;50.868;4.180;2022-09-02T06:26:46;17.10;99.90
20670;DHT22;10494;50.868;4.180;2022-09-02T06:29:12;17.20;99.90
20670;DHT22;10494;50.868;4.180;2022-09-02T06:31:43;17.40;99.90
20670;DHT22;10494;50.868;4.180;2022-09-02T06:34:10;17.50;99.90
20670;DHT22;10494;50.868;4.180;2022-09-02T06:36:38;17.60;99.90
20670;DHT22;10494;50.868;4.180;2022-09-02T06:39:04;17.70;99.90
20670;DHT22;10494;50.868;4.180;2022-09-02T06:41:31;17.80;99.90
20670;DHT22;10494;50.868;4.180;2022-09-02T06:43:59;17.90;99.90
20670;DHT22;10494;50.868;4.180;2022-09-02T06:46:31;18.10;99.90
20670;DHT22;10494;50.868;4.180;2022-09-02T06:48:57;18.30;99.90
20670;DHT22;10494;50.868;4.180;2022-09-02T06:51:30;18.40;99.90
20670;DHT22;10494;50.868;4.180;2022-09-02T06:53:56;18.50;99.90
20670;DHT22;10494;50.868;4.180;2022-09-02T06:56:22;18.60;99.90
20670;DHT22;10494;50.868;4.180;2022-09-02T06:58:48;18.90;99.90
20670;DHT22;10494;50.868;4.180;2022-09-02T07:01:19;19.10;99.90
20670;DHT22;10494;50.868;4.180;2022-09-02T07:03:44;19.10;99.90
20670;DHT22;10494;50.868;4.180;2022-09-02T07:06:35;19.40;99.90
20670;DHT22;10494;50.868;4.180;2022-09-02T07:09:04;19.50;99.90
20670;DHT22;10494;50.868;4.180;2022-09-02T07:11:29;19.70;99.90
20670;DHT22;10494;50.868;4.180;2022-09-02T07:13:55;20.00;99.90
20670;DHT22;10494;50.868;4.180;2022-09-02T07:16:24;20.30;99.90
20670;DHT22;10494;50.868;4.180;2022-09-02T07:18:50;20.40;99.90
20670;DHT22;10494;50.868;4.180;2022-09-02T07:21:15;20.60;99.90
20670;DHT22;10494;50.868;4.180;2022-09-02T07:23:41;20.70;99.90
20670;DHT22;10494;50.868;4.180;2022-09-02T07:26:14;20.70;99.90
20670;DHT22;10494;50.868;4.180;2022-09-02T07:28:40;21.20;99.90
20670;DHT22;10494;50.868;4.180;2022-09-02T07:31:11;21.80;99.90
20670;DHT22;10494;50.868;4.180;2022-09-02T07:33:37;22.70;99.90
20670;DHT22;10494;50.868;4.180;2022-09-02T07:36:07;23.40;99.90
20670;DHT22;10494;50.868;4.180;2022-09-02T07:38:36;23.70;99.90
20670;DHT22;10494;50.868;4.180;2022-09-02T07:41:02;24.20;99.90
20670;DHT22;10494;50.868;4.180;2022-09-02T07:43:30;24.50;99.90
20670;DHT22;10494;50.868;4.180;2022-09-02T07:45:57;24.80;99.90
20670;DHT22;10494;50.868;4.180;2022-09-02T07:48:23;25.50;99.90
20670;DHT22;10494;50.868;4.180;2022-09-02T07:50:50;25.60;99.90
20670;DHT22;10494;50.868;4.180;2022-09-02T07:53:16;26.10;99.90
20670;DHT22;10494;50.868;4.180;2022-09-02T07:55:42;26.90;99.90
20670;DHT22;10494;50.868;4.180;2022-09-02T07:58:09;27.70;99.90
20670;DHT22;10494;50.868;4.180;2022-09-02T08:00:36;27.50;99.10
20670;DHT22;10494;50.868;4.180;2022-09-02T08:03:02;28.00;97.60
20670;DHT22;10494;50.868;4.180;2022-09-02T08:05:29;27.80;97.00
20670;DHT22;10494;50.868;4.180;2022-09-02T08:07:55;27.20;96.60
20670;DHT22;10494;50.868;4.180;2022-09-02T08:10:21;27.10;98.10
20670;DHT22;10494;50.868;4.180;2022-09-02T08:12:50;27.30;97.70
20670;DHT22;10494;50.868;4.180;2022-09-02T08:15:16;28.30;96.30
20670;DHT22;10494;50.868;4.180;2022-09-02T08:17:42;29.00;93.00
20670;DHT22;10494;50.868;4.180;2022-09-02T08:20:09;27.90;93.40
20670;DHT22;10494;50.868;4.180;2022-09-02T08:22:36;28.10;94.00
20670;DHT22;10494;50.868;4.180;2022-09-02T08:25:03;28.40;92.90
20670;DHT22;10494;50.868;4.180;2022-09-02T08:27:28;28.50;91.80
20670;DHT22;10494;50.868;4.180;2022-09-02T08:29:54;27.80;93.30
20670;DHT22;10494;50.868;4.180;2022-09-02T08:32:20;28.50;92.70
20670;DHT22;10494;50.868;4.180;2022-09-02T08:34:45;29.10;90.50
20670;DHT22;10494;50.868;4.180;2022-09-02T08:37:11;28.40;91.50
20670;DHT22;10494;50.868;4.180;2022-09-02T08:39:37;28.80;91.10
20670;DHT22;10494;50.868;4.180;2022-09-02T08:44:37;29.90;85.60
20670;DHT22;10494;50.868;4.180;2022-09-02T08:47:08;29.50;86.40
20670;DHT22;10494;50.868;4.180;2022-09-02T08:50:27;29.50;84.70
20670;DHT22;10494;50.868;4.180;2022-09-02T08:55:54;28.00;90.40
20670;DHT22;10494;50.868;4.180;2022-09-02T08:58:23;28.80;87.90
20670;DHT22;10494;50.868;4.180;2022-09-02T09:12:36;31.10;78.80
20670;DHT22;10494;50.868;4.180;2022-09-02T09:18:04;30.00;79.80
20670;DHT22;10494;50.868;4.180;2022-09-02T09:20:36;28.90;82.10
20670;DHT22;10494;50.868;4.180;2022-09-02T09:23:31;28.70;84.20
20670;DHT22;10494;50.868;4.180;2022-09-02T09:28:30;28.40;88.00
20670;DHT22;10494;50.868;4.180;2022-09-02T09:30:58;29.30;84.70
20670;DHT22;10494;50.868;4.180;2022-09-02T09:33:25;29.50;82.70
20670;DHT22;10494;50.868;4.180;2022-09-02T09:35:54;29.00;84.70
20670;DHT22;10494;50.868;4.180;2022-09-02T09:38:33;29.20;83.40
20670;DHT22;10494;50.868;4.180;2022-09-02T09:41:21;28.40;83.90
20670;DHT22;10494;50.868;4.180;2022-09-02T09:43:49;28.30;86.70
20670;DHT22;10494;50.868;4.180;2022-09-02T09:48:49;28.80;85.60
20670;DHT22;10494;50.868;4.180;2022-09-02T09:51:16;30.00;82.20
20670;DHT22;10494;50.868;4.180;2022-09-02T09:53:42;29.40;81.80
20670;DHT22;10494;50.868;4.180;2022-09-02T10:01:13;28.60;84.60
20670;DHT22;10494;50.868;4.180;2022-09-02T10:06:43;29.80;80.70
20670;DHT22;10494;50.868;4.180;2022-09-02T10:11:55;29.80;81.80
20670;DHT22;10494;50.868;4.180;2022-09-02T10:14:21;30.40;78.90
20670;DHT22;10494;50.868;4.180;2022-09-02T10:27:44;30.50;78.20
20670;DHT22;10494;50.868;4.180;2022-09-02T10:30:24;30.90;76.10
20670;DHT22;10494;50.868;4.180;2022-09-02T10:35:35;30.00;76.90
20670;DHT22;10494;50.868;4.180;2022-09-02T10:43:46;30.20;75.70
20670;DHT22;10494;50.868;4.180;2022-09-02T10:46:16;30.30;74.70
20670;DHT22;10494;50.868;4.180;2022-09-02T10:57:02;29.90;74.30
20670;DHT22;10494;50.868;4.180;2022-09-02T10:59:34;29.60;74.20
20670;DHT22;10494;50.868;4.180;2022-09-02T11:05:24;28.30;77.10
20670;DHT22;10494;50.868;4.180;2022-09-02T11:08:30;28.90;77.00
20670;DHT22;10494;50.868;4.180;2022-09-02T11:11:06;29.50;75.30
20670;DHT22;10494;50.868;4.180;2022-09-02T11:16:34;29.30;73.90
20670;DHT22;10494;50.868;4.180;2022-09-02T11:19:20;28.50;77.20
20670;DHT22;10494;50.868;4.180;2022-09-02T11:21:48;28.70;75.70
20670;DHT22;10494;50.868;4.180;2022-09-02T11:24:43;28.50;76.40
20670;DHT22;10494;50.868;4.180;2022-09-02T11:30:00;29.10;76.00
20670;DHT22;10494;50.868;4.180;2022-09-02T11:35:23;28.30;77.60
20670;DHT22;10494;50.868;4.180;2022-09-02T11:40:35;29.00;77.00
20670;DHT22;10494;50.868;4.180;2022-09-02T11:48:46;29.00;72.20
20670;DHT22;10494;50.868;4.180;2022-09-02T11:51:44;28.70;74.40
20670;DHT22;10494;50.868;4.180;2022-09-02T11:54:13;28.80;74.30
20670;DHT22;10494;50.868;4.180;2022-09-02T11:56:44;29.10;74.30
20670;DHT22;10494;50.868;4.180;2022-09-02T12:02:05;28.50;72.70
20670;DHT22;10494;50.868;4.180;2022-09-02T12:04:30;28.10;74.80
20670;DHT22;10494;50.868;4.180;2022-09-02T12:09:51;27.90;74.60
20670;DHT22;10494;50.868;4.180;2022-09-02T12:15:14;28.60;74.30
20670;DHT22;10494;50.868;4.180;2022-09-02T12:18:05;29.10;73.70
20670;DHT22;10494;50.868;4.180;2022-09-02T12:23:07;29.80;71.80
20670;DHT22;10494;50.868;4.180;2022-09-02T12:25:44;30.00;71.10
20670;DHT22;10494;50.868;4.180;2022-09-02T12:33:43;29.20;69.40
20670;DHT22;10494;50.868;4.180;2022-09-02T12:47:41;29.00;68.90
20670;DHT22;10494;50.868;4.180;2022-09-02T12:50:24;29.20;67.40
20670;DHT22;10494;50.868;4.180;2022-09-02T12:53:22;29.10;67.50
20670;DHT22;10494;50.868;4.180;2022-09-02T12:55:39;29.30;67.00
20670;DHT22;10494;50.868;4.180;2022-09-02T12:58:11;29.60;65.70
20670;DHT22;10494;50.868;4.180;2022-09-02T13:31:37;29.50;62.60
20670;DHT22;10494;50.868;4.180;2022-09-02T13:34:05;29.30;62.60
20670;DHT22;10494;50.868;4.180;2022-09-02T13:36:36;29.00;63.10
20670;DHT22;10494;50.868;4.180;2022-09-02T13:39:17;28.80;62.90
20670;DHT22;10494;50.868;4.180;2022-09-02T13:41:44;28.80;64.10
20670;DHT22;10494;50.868;4.180;2022-09-02T13:44:21;28.90;64.20
20670;DHT22;10494;50.868;4.180;2022-09-02T13:46:51;29.10;63.70
20670;DHT22;10494;50.868;4.180;2022-09-02T13:49:19;29.10;62.20
20670;DHT22;10494;50.868;4.180;2022-09-02T13:51:46;29.10;62.00
20670;DHT22;10494;50.868;4.180;2022-09-02T13:54:12;29.30;61.80
20670;DHT22;10494;50.868;4.180;2022-09-02T13:56:38;29.40;61.20
20670;DHT22;10494;50.868;4.180;2022-09-02T13:59:04;29.40;60.20
20670;DHT22;10494;50.868;4.180;2022-09-02T14:01:32;29.80;59.70
20670;DHT22;10494;50.868;4.180;2022-09-02T14:04:02;29.80;59.50
20670;DHT22;10494;50.868;4.180;2022-09-02T14:06:50;29.40;59.30
20670;DHT22;10494;50.868;4.180;2022-09-02T14:09:28;29.40;59.10
20670;DHT22;10494;50.868;4.180;2022-09-02T14:11:56;29.20;59.10
20670;DHT22;10494;50.868;4.180;2022-09-02T14:14:23;29.10;59.70
20670;DHT22;10494;50.868;4.180;2022-09-02T14:16:49;29.00;59.50
20670;DHT22;10494;50.868;4.180;2022-09-02T14:21:53;28.40;59.40
20670;DHT22;10494;50.868;4.180;2022-09-02T14:24:27;28.20;59.80
20670;DHT22;10494;50.868;4.180;2022-09-02T14:26:57;28.30;60.00
20670;DHT22;10494;50.868;4.180;2022-09-02T14:29:25;28.20;59.30
20670;DHT22;10494;50.868;4.180;2022-09-02T14:34:40;28.50;59.90
20670;DHT22;10494;50.868;4.180;2022-09-02T14:37:24;28.50;59.30
20670;DHT22;10494;50.868;4.180;2022-09-02T14:40:04;28.30;59.60
20670;DHT22;10494;50.868;4.180;2022-09-02T14:42:33;28.40;59.90
20670;DHT22;10494;50.868;4.180;2022-09-02T14:44:59;28.60;59.90
20670;DHT22;10494;50.868;4.180;2022-09-02T14:47:27;28.70;58.40
20670;DHT22;10494;50.868;4.180;2022-09-02T14:49:54;28.70;58.00
20670;DHT22;10494;50.868;4.180;2022-09-02T14:52:26;28.60;57.00
20670;DHT22;10494;50.868;4.180;2022-09-02T14:54:54;28.60;58.20
20670;DHT22;10494;50.868;4.180;2022-09-02T14:59:47;28.30;57.20
20670;DHT22;10494;50.868;4.180;2022-09-02T15:02:31;28.30;57.30
20670;DHT22;10494;50.868;4.180;2022-09-02T15:05:00;28.30;57.60
20670;DHT22;10494;50.868;4.180;2022-09-02T15:07:26;28.40;58.50
20670;DHT22;10494;50.868;4.180;2022-09-02T15:09:53;28.30;58.00
20670;DHT22;10494;50.868;4.180;2022-09-02T15:12:25;28.10;58.40
20670;DHT22;10494;50.868;4.180;2022-09-02T15:14:52;28.10;58.40
20670;DHT22;10494;50.868;4.180;2022-09-02T15:17:18;28.10;58.30
20670;DHT22;10494;50.868;4.180;2022-09-02T15:19:44;28.10;57.90
20670;DHT22;10494;50.868;4.180;2022-09-02T15:22:09;28.30;57.00
20670;DHT22;10494;50.868;4.180;2022-09-02T15:24:35;28.50;57.40
20670;DHT22;10494;50.868;4.180;2022-09-02T15:27:01;28.60;56.70
20670;DHT22;10494;50.868;4.180;2022-09-02T15:29:26;28.80;56.20
20670;DHT22;10494;50.868;4.180;2022-09-02T15:31:53;28.80;55.20
20670;DHT22;10494;50.868;4.180;2022-09-02T15:34:22;28.80;55.60
20670;DHT22;10494;50.868;4.180;2022-09-02T15:36:48;29.00;55.90
20670;DHT22;10494;50.868;4.180;2022-09-02T15:39:14;29.00;56.60
20670;DHT22;10494;50.868;4.180;2022-09-02T15:41:42;28.90;54.70
20670;DHT22;10494;50.868;4.180;2022-09-02T15:44:08;28.80;54.80
20670;DHT22;10494;50.868;4.180;2022-09-02T15:46:34;29.00;55.20
20670;DHT22;10494;50.868;4.180;2022-09-02T15:49:06;29.10;55.40
20670;DHT22;10494;50.868;4.180;2022-09-02T15:51:32;29.20;55.60
20670;DHT22;10494;50.868;4.180;2022-09-02T15:54:01;29.20;55.80
20670;DHT22;10494;50.868;4.180;2022-09-02T15:56:28;29.30;56.30
20670;DHT22;10494;50.868;4.180;2022-09-02T15:58:59;29.10;54.10
20670;DHT22;10494;50.868;4.180;2022-09-02T16:01:28;28.80;55.50
20670;DHT22;10494;50.868;4.180;2022-09-02T16:03:54;28.70;55.90
20670;DHT22;10494;50.868;4.180;2022-09-02T16:06:20;28.50;55.40
20670;DHT22;10494;50.868;4.180;2022-09-02T16:08:46;28.30;56.40
20670;DHT22;10494;50.868;4.180;2022-09-02T16:11:11;28.50;57.30
20670;DHT22;10494;50.868;4.180;2022-09-02T16:13:37;28.70;57.70
20670;DHT22;10494;50.868;4.180;2022-09-02T16:16:05;28.70;58.00
20670;DHT22;10494;50.868;4.180;2022-09-02T16:18:31;28.70;56.70
20670;DHT22;10494;50.868;4.180;2022-09-02T16:20:57;28.80;55.90
20670;DHT22;10494;50.868;4.180;2022-09-02T16:23:23;28.80;56.40
20670;DHT22;10494;50.868;4.180;2022-09-02T16:28:37;28.80;55.90
20670;DHT22;10494;50.868;4.180;2022-09-02T16:31:04;28.80;55.90
20670;DHT22;10494;50.868;4.180;2022-09-02T16:33:30;28.70;56.20
20670;DHT22;10494;50.868;4.180;2022-09-02T16:35:56;28.70;56.40
20670;DHT22;10494;50.868;4.180;2022-09-02T16:38:22;28.70;56.60
20670;DHT22;10494;50.868;4.180;2022-09-02T16:40:52;28.70;57.20
20670;DHT22;10494;50.868;4.180;2022-09-02T16:43:18;28.80;56.70
20670;DHT22;10494;50.868;4.180;2022-09-02T16:45:46;28.70;56.70
20670;DHT22;10494;50.868;4.180;2022-09-02T16:48:12;28.60;57.10
20670;DHT22;10494;50.868;4.180;2022-09-02T16:50:37;28.50;58.40
20670;DHT22;10494;50.868;4.180;2022-09-02T16:53:03;28.40;58.90
20670;DHT22;10494;50.868;4.180;2022-09-02T16:55:29;28.10;62.60
20670;DHT22;10494;50.868;4.180;2022-09-02T16:57:56;28.00;67.90
20670;DHT22;10494;50.868;4.180;2022-09-02T17:00:25;28.10;68.90
20670;DHT22;10494;50.868;4.180;2022-09-02T17:02:51;28.00;70.50
20670;DHT22;10494;50.868;4.180;2022-09-02T17:05:17;27.70;72.60
20670;DHT22;10494;50.868;4.180;2022-09-02T17:07:43;27.40;73.20
20670;DHT22;10494;50.868;4.180;2022-09-02T17:10:10;27.10;74.60
20670;DHT22;10494;50.868;4.180;2022-09-02T17:12:35;27.00;76.10
20670;DHT22;10494;50.868;4.180;2022-09-02T17:15:01;27.00;77.00
20670;DHT22;10494;50.868;4.180;2022-09-02T17:17:27;26.80;78.40
20670;DHT22;10494;50.868;4.180;2022-09-02T17:19:52;26.70;79.40
20670;DHT22;10494;50.868;4.180;2022-09-02T17:22:18;26.80;80.10
20670;DHT22;10494;50.868;4.180;2022-09-02T17:24:44;26.60;81.10
20670;DHT22;10494;50.868;4.180;2022-09-02T17:27:10;26.40;82.80
20670;DHT22;10494;50.868;4.180;2022-09-02T17:29:35;26.30;84.10
20670;DHT22;10494;50.868;4.180;2022-09-02T17:32:01;26.30;84.70
20670;DHT22;10494;50.868;4.180;2022-09-02T17:34:27;26.30;85.20
20670;DHT22;10494;50.868;4.180;2022-09-02T17:36:52;26.20;85.80
20670;DHT22;10494;50.868;4.180;2022-09-02T17:39:19;26.20;86.60
20670;DHT22;10494;50.868;4.180;2022-09-02T17:41:45;26.10;87.50
20670;DHT22;10494;50.868;4.180;2022-09-02T17:44:28;25.80;89.00
20670;DHT22;10494;50.868;4.180;2022-09-02T17:47:10;25.70;90.50
20670;DHT22;10494;50.868;4.180;2022-09-02T17:49:37;25.80;91.00
20670;DHT22;10494;50.868;4.180;2022-09-02T17:52:04;25.90;91.20
20670;DHT22;10494;50.868;4.180;2022-09-02T17:54:31;25.80;91.70
20670;DHT22;10494;50.868;4.180;2022-09-02T17:57:19;25.70;92.40
20670;DHT22;10494;50.868;4.180;2022-09-02T18:08:08;25.00;96.00
20670;DHT22;10494;50.868;4.180;2022-09-02T18:10:46;25.00;97.10
20670;DHT22;10494;50.868;4.180;2022-09-02T18:13:16;25.00;97.80
20670;DHT22;10494;50.868;4.180;2022-09-02T18:18:22;25.30;98.80
20670;DHT22;10494;50.868;4.180;2022-09-02T18:20:54;25.00;98.80
20670;DHT22;10494;50.868;4.180;2022-09-02T18:23:46;24.90;99.90